Terminal Aerodrome Forecast
Issued by NWS Jackson, MS

Home | Current Version | Previous Version | Text Only | Print | Product List | Glossary On
Versions: 1 2 3 4 5 6 7 8 9 10 11 12 13 14 15 16 17 18
000
FTUS44 KJAN 192348
TAFJAN
TAF
KJAN 192348Z 2000/2024 19007KT P6SM SKC
     FM200400 20009KT P6SM VCTS SCT040CB BKN060
     FM200600 22009KT P6SM SCT100
     FM201000 23008KT 6SM BR OVC015
     FM201500 30009G15KT P6SM BKN025
     FM201800 30012G18KT P6SM BKN040=

USA.gov is the U.S. government's official web portal to all federal, state and local government web resources and services.